createdAt,value
2022-08-16T00:02:02.234Z,18.96
2022-08-16T00:08:30.754Z,18.92
2022-08-16T00:14:45.292Z,18.87
2022-08-16T00:21:05.173Z,18.8
2022-08-16T00:27:30.745Z,18.76
2022-08-16T00:33:49.951Z,18.75
2022-08-16T00:40:15.268Z,18.72
2022-08-16T00:46:33.487Z,18.7
2022-08-16T00:52:54.613Z,18.65
2022-08-16T00:59:15.148Z,18.62
2022-08-16T01:05:37.162Z,18.59
2022-08-16T01:11:57.188Z,18.6
2022-08-16T01:18:39.528Z,18.61
2022-08-16T01:24:45.361Z,18.64
2022-08-16T01:31:03.186Z,18.65
2022-08-16T01:37:23.148Z,18.64
2022-08-16T01:43:46.196Z,18.63
2022-08-16T01:50:41.604Z,18.57
2022-08-16T01:56:29.251Z,18.55
2022-08-16T02:02:52.256Z,18.53
2022-08-16T02:09:12.162Z,18.55
2022-08-16T02:15:35.563Z,18.57
2022-08-16T02:22:07.606Z,18.56
2022-08-16T02:28:17.158Z,18.52
2022-08-16T02:34:40.722Z,18.46
2022-08-16T02:40:59.023Z,18.44
2022-08-16T02:47:24.845Z,18.42
2022-08-16T02:53:41.182Z,18.38
2022-08-16T03:00:17.359Z,18.32
2022-08-16T03:06:36.370Z,18.24
2022-08-16T03:12:55.014Z,18.21
2022-08-16T03:19:07.466Z,18.2
2022-08-16T03:25:41.210Z,18.21
2022-08-16T03:31:52.323Z,18.18
2022-08-16T03:48:19.721Z,18
2022-08-16T03:54:39.192Z,17.94
2022-08-16T04:01:02.184Z,17.89
2022-08-16T04:07:22.200Z,17.84
2022-08-16T04:13:59.596Z,17.81
2022-08-16T04:20:06.575Z,17.76
2022-08-16T04:26:31.011Z,17.78
2022-08-16T04:32:49.050Z,17.81
2022-08-16T04:39:11.272Z,17.81
2022-08-16T04:45:35.428Z,17.75
2022-08-16T04:51:55.309Z,17.76
2022-08-16T04:58:41.392Z,17.78
2022-08-16T05:04:37.212Z,17.75
2022-08-16T05:10:58.865Z,17.74
2022-08-16T05:17:20.228Z,17.73
2022-08-16T05:23:40.192Z,17.76
2022-08-16T05:30:35.410Z,17.77
2022-08-16T05:36:23.225Z,17.84
2022-08-16T05:42:47.680Z,17.91
2022-08-16T05:49:06.593Z,18.01
2022-08-16T05:55:30.040Z,18.17
2022-08-16T06:01:49.217Z,18.34
2022-08-16T06:08:32.222Z,18.53
2022-08-16T06:14:32.177Z,18.74
2022-08-16T06:20:56.129Z,18.94
2022-08-16T06:27:15.183Z,19.12
2022-08-16T06:33:41.471Z,19.3
2022-08-16T06:39:58.183Z,19.53
2022-08-16T06:46:21.180Z,19.74
2022-08-16T06:52:58.646Z,19.96
2022-08-16T06:59:04.160Z,20.18
2022-08-16T07:05:27.132Z,20.38
2022-08-16T07:11:51.821Z,20.59
2022-08-16T07:18:07.192Z,20.8
2022-08-16T07:24:31.068Z,21.03
2022-08-16T07:30:50.150Z,21.27
2022-08-16T07:37:14.123Z,21.5
2022-08-16T07:43:33.148Z,21.69
2022-08-16T07:49:58.034Z,21.92
2022-08-16T07:56:16.155Z,22.13
2022-08-16T08:02:39.164Z,22.39
2022-08-16T08:08:59.610Z,22.65
2022-08-16T08:15:25.410Z,22.98
2022-08-16T08:21:58.708Z,23.21
2022-08-16T08:28:05.146Z,23.47
2022-08-16T08:34:25.180Z,23.74
2022-08-16T08:40:48.175Z,24.07
2022-08-16T08:47:11.554Z,24.26
2022-08-16T08:53:31.175Z,24.47
2022-08-16T08:59:51.147Z,24.7
2022-08-16T09:23:15.161Z,25.66
2022-08-16T09:29:44.588Z,25.9
2022-08-16T09:35:58.179Z,26.17
2022-08-16T09:42:21.148Z,26.52
2022-08-16T09:48:44.601Z,27
2022-08-16T09:55:04.185Z,27.11
2022-08-16T10:01:24.144Z,27.29
2022-08-16T10:07:47.163Z,27.72
2022-08-16T10:14:07.160Z,28.13
2022-08-16T10:20:30.144Z,28.41
2022-08-16T10:27:00.145Z,28.67
2022-08-16T10:33:13.139Z,28.9
2022-08-16T10:39:40.947Z,29.22
2022-08-16T10:45:59.750Z,29.23
2022-08-16T10:52:17.877Z,29.38
2022-08-16T10:58:39.181Z,29.75
2022-08-16T11:05:08.063Z,30.04
2022-08-16T11:11:22.175Z,30.34
2022-08-16T11:17:44.902Z,29.85
2022-08-16T11:24:05.145Z,29.75
2022-08-16T11:30:28.417Z,29.76
2022-08-16T11:36:53.501Z,29.59
2022-08-16T11:43:09.926Z,29.82
2022-08-16T11:49:31.148Z,30.23
2022-08-16T11:55:54.545Z,30.52
2022-08-16T12:02:30.800Z,30.66
2022-08-16T12:08:34.150Z,31.07
2022-08-16T12:14:59.569Z,31.49
2022-08-16T12:21:17.149Z,31.97
2022-08-16T12:27:40.153Z,31.84
2022-08-16T12:34:00.163Z,32.25
2022-08-16T12:40:24.450Z,33.15
2022-08-16T12:46:43.178Z,33.92
2022-08-16T12:53:06.144Z,34.39
2022-08-16T12:59:26.157Z,34.68
2022-08-16T13:05:53.436Z,34.76
2022-08-16T13:12:09.627Z,34.78
2022-08-16T13:18:34.382Z,34.43
2022-08-16T13:24:52.154Z,34.53
2022-08-16T13:31:15.377Z,34.24
2022-08-16T13:37:36.362Z,33.81
2022-08-16T13:43:59.281Z,33.52
2022-08-16T13:50:18.171Z,33.62
2022-08-16T13:56:41.150Z,34.09
2022-08-16T14:03:01.258Z,33.94
2022-08-16T14:09:24.169Z,33.05
2022-08-16T14:15:44.150Z,33.03
2022-08-16T14:22:13.840Z,32.9
2022-08-16T14:28:27.143Z,32.63
2022-08-16T14:34:50.184Z,32.28
2022-08-16T14:41:10.625Z,32.21
2022-08-16T14:47:34.062Z,32.19
2022-08-16T14:53:53.176Z,32.52
2022-08-16T15:00:16.164Z,32.67
2022-08-16T15:06:36.508Z,32.6
2022-08-16T15:23:23.143Z,32.22
2022-08-16T15:29:43.172Z,32.13
2022-08-16T15:36:06.191Z,32.03
2022-08-16T15:42:27.146Z,31.92
2022-08-16T15:48:49.156Z,31.72
2022-08-16T15:55:13.500Z,31.68
2022-08-16T16:01:32.466Z,31.65
2022-08-16T16:07:55.968Z,31.58
2022-08-16T16:14:15.164Z,31.66
2022-08-16T16:20:35.150Z,31.44
2022-08-16T16:26:58.174Z,31.2
2022-08-16T16:33:20.439Z,31.09
2022-08-16T16:39:41.272Z,31.05
2022-08-16T16:46:01.617Z,31.1
2022-08-16T16:52:31.206Z,30.96
2022-08-16T16:58:53.577Z,30.8
2022-08-16T17:05:08.478Z,30.74
2022-08-16T17:11:27.177Z,30.69
2022-08-16T17:17:54.666Z,30.75
2022-08-16T17:24:17.326Z,30.9
2022-08-16T17:30:45.366Z,31
2022-08-16T17:36:54.224Z,31.08
2022-08-16T17:43:16.157Z,30.88
2022-08-16T17:49:36.208Z,30.62
2022-08-16T17:55:59.176Z,30.32
2022-08-16T18:02:43.219Z,30.06
2022-08-16T18:08:42.806Z,29.8
2022-08-16T18:15:02.381Z,29.47
2022-08-16T18:21:25.221Z,29.12
2022-08-16T18:27:45.160Z,28.78
2022-08-16T18:34:08.203Z,28.44
2022-08-16T18:40:28.158Z,28.09
2022-08-16T18:46:51.271Z,27.83
2022-08-16T18:53:11.190Z,27.62
2022-08-16T18:59:34.156Z,27.43
2022-08-16T19:05:54.166Z,27.19
2022-08-16T19:12:17.162Z,26.92
2022-08-16T19:18:37.197Z,26.64
2022-08-16T19:25:00.160Z,26.39
2022-08-16T19:31:20.520Z,26.13
2022-08-16T19:37:46.530Z,25.88
2022-08-16T19:44:03.161Z,25.71
2022-08-16T19:50:35.680Z,25.54
2022-08-16T19:56:46.178Z,25.26
2022-08-16T20:03:09.187Z,25.06
2022-08-16T20:09:29.170Z,24.88
2022-08-16T20:15:52.179Z,24.69
2022-08-16T20:22:18.205Z,24.49
2022-08-16T20:28:40.807Z,24.36
2022-08-16T20:34:55.179Z,24.24
2022-08-16T20:58:19.145Z,23.72
2022-08-16T21:04:42.136Z,23.58
2022-08-16T21:11:02.264Z,23.43
2022-08-16T21:17:25.140Z,23.31
2022-08-16T21:23:45.167Z,23.2
2022-08-16T21:30:08.164Z,23.07
2022-08-16T21:36:34.544Z,22.87
2022-08-16T21:42:51.338Z,22.78
2022-08-16T21:49:11.156Z,22.75
2022-08-16T21:55:34.154Z,22.76
2022-08-16T22:19:49.170Z,22.22
2022-08-16T22:26:09.145Z,22.23
2022-08-16T22:32:32.148Z,22.19
2022-08-16T22:38:56.901Z,22.14
2022-08-16T22:45:15.165Z,22.02
2022-08-16T22:51:35.176Z,21.92
2022-08-16T22:57:58.141Z,21.78
2022-08-16T23:04:18.225Z,21.66
2022-08-16T23:10:41.147Z,21.55
2022-08-16T23:17:01.193Z,21.48
2022-08-16T23:23:24.409Z,21.44
2022-08-16T23:29:44.133Z,21.44
2022-08-16T23:36:07.179Z,21.42
2022-08-16T23:42:44.146Z,21.4
2022-08-16T23:49:45.527Z,21.39
2022-08-16T23:55:10.140Z,21.36
